sensor_id;sensor_type;location;lat;lon;timestamp;P1;durP1;ratioP1;P2;durP2;ratioP2
59294;SDS011;45067;44.654;20.200;2023-10-31T00:02:15;7.45;;;3.47;;
59294;SDS011;45067;44.654;20.200;2023-10-31T00:04:42;7.15;;;3.58;;
59294;SDS011;45067;44.654;20.200;2023-10-31T00:07:08;8.95;;;3.53;;
59294;SDS011;45067;44.654;20.200;2023-10-31T00:09:34;8.52;;;3.50;;
59294;SDS011;45067;44.654;20.200;2023-10-31T00:15:04;5.85;;;3.00;;
59294;SDS011;45067;44.654;20.200;2023-10-31T00:17:30;6.97;;;3.30;;
59294;SDS011;45067;44.654;20.200;2023-10-31T00:19:56;8.25;;;3.50;;
59294;SDS011;45067;44.654;20.200;2023-10-31T00:22:22;4.60;;;2.85;;
59294;SDS011;45067;44.654;20.200;2023-10-31T00:24:48;6.95;;;3.00;;
59294;SDS011;45067;44.654;20.200;2023-10-31T00:30:18;7.25;;;3.22;;
59294;SDS011;45067;44.654;20.200;2023-10-31T00:32:44;7.95;;;3.65;;
59294;SDS011;45067;44.654;20.200;2023-10-31T00:35:10;6.78;;;3.40;;
59294;SDS011;45067;44.654;20.200;2023-10-31T00:37:37;7.43;;;3.00;;
59294;SDS011;45067;44.654;20.200;2023-10-31T00:40:05;8.23;;;3.30;;
59294;SDS011;45067;44.654;20.200;2023-10-31T00:42:31;4.38;;;3.03;;
59294;SDS011;45067;44.654;20.200;2023-10-31T00:44:58;6.82;;;3.10;;
59294;SDS011;45067;44.654;20.200;2023-10-31T00:47:24;5.38;;;3.00;;
59294;SDS011;45067;44.654;20.200;2023-10-31T00:49:51;7.43;;;3.28;;
59294;SDS011;45067;44.654;20.200;2023-10-31T00:52:18;6.13;;;3.17;;
59294;SDS011;45067;44.654;20.200;2023-10-31T00:54:44;9.32;;;3.58;;
59294;SDS011;45067;44.654;20.200;2023-10-31T01:00:14;8.55;;;3.50;;
59294;SDS011;45067;44.654;20.200;2023-10-31T01:02:40;6.38;;;3.25;;
59294;SDS011;45067;44.654;20.200;2023-10-31T01:05:06;8.98;;;3.60;;
59294;SDS011;45067;44.654;20.200;2023-10-31T01:07:33;6.85;;;3.58;;
59294;SDS011;45067;44.654;20.200;2023-10-31T01:09:59;9.30;;;3.75;;
59294;SDS011;45067;44.654;20.200;2023-10-31T01:15:29;6.55;;;3.10;;
59294;SDS011;45067;44.654;20.200;2023-10-31T01:17:55;7.43;;;3.50;;
59294;SDS011;45067;44.654;20.200;2023-10-31T01:20:21;9.13;;;3.67;;
59294;SDS011;45067;44.654;20.200;2023-10-31T01:22:47;8.77;;;3.58;;
59294;SDS011;45067;44.654;20.200;2023-10-31T01:25:13;8.45;;;3.80;;
59294;SDS011;45067;44.654;20.200;2023-10-31T01:30:43;6.38;;;3.63;;
59294;SDS011;45067;44.654;20.200;2023-10-31T01:33:09;9.05;;;3.22;;
59294;SDS011;45067;44.654;20.200;2023-10-31T01:35:35;8.38;;;3.10;;
59294;SDS011;45067;44.654;20.200;2023-10-31T01:38:01;7.45;;;3.17;;
59294;SDS011;45067;44.654;20.200;2023-10-31T01:40:27;7.63;;;3.65;;
59294;SDS011;45067;44.654;20.200;2023-10-31T01:42:54;7.20;;;3.90;;
59294;SDS011;45067;44.654;20.200;2023-10-31T01:45:21;8.18;;;4.00;;
59294;SDS011;45067;44.654;20.200;2023-10-31T01:47:47;9.27;;;3.97;;
59294;SDS011;45067;44.654;20.200;2023-10-31T01:50:14;6.22;;;3.20;;
59294;SDS011;45067;44.654;20.200;2023-10-31T01:52:41;6.97;;;3.20;;
59294;SDS011;45067;44.654;20.200;2023-10-31T01:55:07;8.82;;;3.63;;
59294;SDS011;45067;44.654;20.200;2023-10-31T02:00:37;7.13;;;3.40;;
59294;SDS011;45067;44.654;20.200;2023-10-31T02:03:07;9.98;;;3.90;;
59294;SDS011;45067;44.654;20.200;2023-10-31T02:05:33;7.10;;;3.58;;
59294;SDS011;45067;44.654;20.200;2023-10-31T02:08:00;7.25;;;3.53;;
59294;SDS011;45067;44.654;20.200;2023-10-31T02:10:26;7.28;;;3.58;;
59294;SDS011;45067;44.654;20.200;2023-10-31T02:15:56;8.20;;;3.58;;
59294;SDS011;45067;44.654;20.200;2023-10-31T02:18:22;8.20;;;3.38;;
59294;SDS011;45067;44.654;20.200;2023-10-31T02:20:48;7.68;;;3.50;;
59294;SDS011;45067;44.654;20.200;2023-10-31T02:23:17;5.97;;;3.33;;
59294;SDS011;45067;44.654;20.200;2023-10-31T02:25:43;6.25;;;3.20;;
59294;SDS011;45067;44.654;20.200;2023-10-31T02:28:09;7.72;;;3.47;;
59294;SDS011;45067;44.654;20.200;2023-10-31T02:30:35;6.03;;;3.30;;
59294;SDS011;45067;44.654;20.200;2023-10-31T02:33:02;5.35;;;2.78;;
59294;SDS011;45067;44.654;20.200;2023-10-31T02:35:28;9.80;;;3.38;;
59294;SDS011;45067;44.654;20.200;2023-10-31T02:37:54;7.90;;;3.03;;
59294;SDS011;45067;44.654;20.200;2023-10-31T02:40:20;6.85;;;2.97;;
59294;SDS011;45067;44.654;20.200;2023-10-31T02:45:50;6.65;;;3.22;;
59294;SDS011;45067;44.654;20.200;2023-10-31T02:48:16;6.22;;;3.20;;
59294;SDS011;45067;44.654;20.200;2023-10-31T02:50:42;6.97;;;3.50;;
59294;SDS011;45067;44.654;20.200;2023-10-31T02:53:08;8.15;;;3.72;;
59294;SDS011;45067;44.654;20.200;2023-10-31T02:55:34;7.20;;;2.85;;
59294;SDS011;45067;44.654;20.200;2023-10-31T03:01:05;6.47;;;2.95;;
59294;SDS011;45067;44.654;20.200;2023-10-31T03:03:31;5.60;;;3.00;;
59294;SDS011;45067;44.654;20.200;2023-10-31T03:05:57;6.82;;;3.47;;
59294;SDS011;45067;44.654;20.200;2023-10-31T03:08:23;8.27;;;3.45;;
59294;SDS011;45067;44.654;20.200;2023-10-31T03:10:50;8.30;;;3.28;;
59294;SDS011;45067;44.654;20.200;2023-10-31T03:13:17;8.82;;;3.25;;
59294;SDS011;45067;44.654;20.200;2023-10-31T03:15:43;8.52;;;3.53;;
59294;SDS011;45067;44.654;20.200;2023-10-31T03:18:09;6.10;;;3.03;;
59294;SDS011;45067;44.654;20.200;2023-10-31T03:20:35;6.60;;;3.42;;
59294;SDS011;45067;44.654;20.200;2023-10-31T03:23:01;7.68;;;3.40;;
59294;SDS011;45067;44.654;20.200;2023-10-31T03:25:29;8.07;;;3.22;;
59294;SDS011;45067;44.654;20.200;2023-10-31T03:30:59;8.88;;;3.28;;
59294;SDS011;45067;44.654;20.200;2023-10-31T03:33:25;9.88;;;3.70;;
59294;SDS011;45067;44.654;20.200;2023-10-31T03:35:51;8.52;;;3.30;;
59294;SDS011;45067;44.654;20.200;2023-10-31T03:38:17;6.93;;;3.20;;
59294;SDS011;45067;44.654;20.200;2023-10-31T03:40:43;6.55;;;3.38;;
59294;SDS011;45067;44.654;20.200;2023-10-31T03:46:12;8.82;;;3.35;;
59294;SDS011;45067;44.654;20.200;2023-10-31T03:48:38;7.45;;;2.92;;
59294;SDS011;45067;44.654;20.200;2023-10-31T03:51:04;7.25;;;3.80;;
59294;SDS011;45067;44.654;20.200;2023-10-31T03:53:30;6.53;;;3.20;;
59294;SDS011;45067;44.654;20.200;2023-10-31T03:55:58;6.60;;;3.40;;
59294;SDS011;45067;44.654;20.200;2023-10-31T04:01:47;9.02;;;3.50;;
59294;SDS011;45067;44.654;20.200;2023-10-31T04:04:13;6.57;;;3.10;;
59294;SDS011;45067;44.654;20.200;2023-10-31T04:06:39;7.55;;;3.83;;
59294;SDS011;45067;44.654;20.200;2023-10-31T04:09:06;8.27;;;3.63;;
59294;SDS011;45067;44.654;20.200;2023-10-31T04:11:32;7.90;;;3.75;;
59294;SDS011;45067;44.654;20.200;2023-10-31T04:13:58;8.45;;;3.60;;
59294;SDS011;45067;44.654;20.200;2023-10-31T04:16:25;7.53;;;3.85;;
59294;SDS011;45067;44.654;20.200;2023-10-31T04:18:51;8.20;;;3.83;;
59294;SDS011;45067;44.654;20.200;2023-10-31T04:21:17;6.60;;;3.60;;
59294;SDS011;45067;44.654;20.200;2023-10-31T04:23:43;7.47;;;3.95;;
59294;SDS011;45067;44.654;20.200;2023-10-31T04:26:09;7.75;;;3.92;;
59294;SDS011;45067;44.654;20.200;2023-10-31T04:28:35;6.70;;;3.88;;
59294;SDS011;45067;44.654;20.200;2023-10-31T04:31:01;11.20;;;3.65;;
59294;SDS011;45067;44.654;20.200;2023-10-31T04:33:27;7.03;;;3.38;;
59294;SDS011;45067;44.654;20.200;2023-10-31T04:35:53;8.15;;;3.65;;
59294;SDS011;45067;44.654;20.200;2023-10-31T04:38:20;5.93;;;2.90;;
59294;SDS011;45067;44.654;20.200;2023-10-31T04:40:47;7.70;;;3.15;;
59294;SDS011;45067;44.654;20.200;2023-10-31T04:46:18;7.25;;;3.75;;
59294;SDS011;45067;44.654;20.200;2023-10-31T04:48:44;9.23;;;3.25;;
59294;SDS011;45067;44.654;20.200;2023-10-31T04:51:10;5.50;;;3.05;;
59294;SDS011;45067;44.654;20.200;2023-10-31T04:53:36;6.78;;;3.33;;
59294;SDS011;45067;44.654;20.200;2023-10-31T04:56:03;6.15;;;2.70;;
59294;SDS011;45067;44.654;20.200;2023-10-31T05:01:32;5.30;;;2.72;;
59294;SDS011;45067;44.654;20.200;2023-10-31T05:03:58;6.38;;;2.88;;
59294;SDS011;45067;44.654;20.200;2023-10-31T05:06:24;7.30;;;3.22;;
59294;SDS011;45067;44.654;20.200;2023-10-31T05:08:50;9.77;;;3.22;;
59294;SDS011;45067;44.654;20.200;2023-10-31T05:11:16;6.53;;;2.88;;
59294;SDS011;45067;44.654;20.200;2023-10-31T05:16:47;8.15;;;2.90;;
59294;SDS011;45067;44.654;20.200;2023-10-31T05:19:15;6.28;;;3.00;;
59294;SDS011;45067;44.654;20.200;2023-10-31T05:21:44;6.75;;;3.35;;
59294;SDS011;45067;44.654;20.200;2023-10-31T05:24:10;6.22;;;3.08;;
59294;SDS011;45067;44.654;20.200;2023-10-31T05:26:36;6.13;;;3.22;;
59294;SDS011;45067;44.654;20.200;2023-10-31T05:29:03;7.82;;;3.25;;
59294;SDS011;45067;44.654;20.200;2023-10-31T05:31:29;6.97;;;2.83;;
59294;SDS011;45067;44.654;20.200;2023-10-31T05:33:55;6.32;;;3.10;;
59294;SDS011;45067;44.654;20.200;2023-10-31T05:36:22;7.40;;;3.30;;
59294;SDS011;45067;44.654;20.200;2023-10-31T05:38:48;4.72;;;2.78;;
59294;SDS011;45067;44.654;20.200;2023-10-31T05:41:15;5.57;;;3.17;;
59294;SDS011;45067;44.654;20.200;2023-10-31T05:46:45;9.15;;;3.42;;
59294;SDS011;45067;44.654;20.200;2023-10-31T05:49:11;7.30;;;3.58;;
59294;SDS011;45067;44.654;20.200;2023-10-31T05:51:37;7.53;;;2.85;;
59294;SDS011;45067;44.654;20.200;2023-10-31T05:54:03;6.10;;;2.75;;
59294;SDS011;45067;44.654;20.200;2023-10-31T05:56:33;8.40;;;2.85;;
59294;SDS011;45067;44.654;20.200;2023-10-31T06:02:04;7.43;;;2.80;;
59294;SDS011;45067;44.654;20.200;2023-10-31T06:04:30;7.07;;;2.75;;
59294;SDS011;45067;44.654;20.200;2023-10-31T06:06:56;7.90;;;3.13;;
59294;SDS011;45067;44.654;20.200;2023-10-31T06:09:22;5.15;;;2.60;;
59294;SDS011;45067;44.654;20.200;2023-10-31T06:11:48;4.63;;;2.80;;
59294;SDS011;45067;44.654;20.200;2023-10-31T06:14:14;7.88;;;2.75;;
59294;SDS011;45067;44.654;20.200;2023-10-31T06:16:40;4.20;;;2.38;;
59294;SDS011;45067;44.654;20.200;2023-10-31T06:19:07;5.88;;;2.50;;
59294;SDS011;45067;44.654;20.200;2023-10-31T06:21:33;5.63;;;2.50;;
59294;SDS011;45067;44.654;20.200;2023-10-31T06:23:59;5.80;;;2.83;;
59294;SDS011;45067;44.654;20.200;2023-10-31T06:26:25;4.75;;;2.65;;
59294;SDS011;45067;44.654;20.200;2023-10-31T06:31:55;6.57;;;2.75;;
59294;SDS011;45067;44.654;20.200;2023-10-31T06:34:21;7.65;;;3.53;;
59294;SDS011;45067;44.654;20.200;2023-10-31T06:36:47;9.27;;;3.58;;
59294;SDS011;45067;44.654;20.200;2023-10-31T06:39:13;8.25;;;3.50;;
59294;SDS011;45067;44.654;20.200;2023-10-31T06:41:39;7.60;;;3.72;;
59294;SDS011;45067;44.654;20.200;2023-10-31T06:47:09;5.25;;;2.50;;
59294;SDS011;45067;44.654;20.200;2023-10-31T06:49:35;6.10;;;2.55;;
59294;SDS011;45067;44.654;20.200;2023-10-31T06:52:02;7.53;;;3.45;;
59294;SDS011;45067;44.654;20.200;2023-10-31T06:54:28;11.77;;;2.90;;
59294;SDS011;45067;44.654;20.200;2023-10-31T06:56:56;6.88;;;2.83;;
59294;SDS011;45067;44.654;20.200;2023-10-31T06:59:22;6.60;;;2.60;;
59294;SDS011;45067;44.654;20.200;2023-10-31T07:01:48;5.90;;;2.63;;
59294;SDS011;45067;44.654;20.200;2023-10-31T07:04:15;5.57;;;2.60;;
59294;SDS011;45067;44.654;20.200;2023-10-31T07:06:41;5.57;;;2.50;;
59294;SDS011;45067;44.654;20.200;2023-10-31T07:09:07;9.90;;;2.97;;
59294;SDS011;45067;44.654;20.200;2023-10-31T07:11:34;8.18;;;2.80;;
59294;SDS011;45067;44.654;20.200;2023-10-31T07:17:04;5.20;;;2.40;;
59294;SDS011;45067;44.654;20.200;2023-10-31T07:19:30;7.03;;;3.00;;
59294;SDS011;45067;44.654;20.200;2023-10-31T07:21:56;8.13;;;2.67;;
59294;SDS011;45067;44.654;20.200;2023-10-31T07:24:22;10.00;;;4.65;;
59294;SDS011;45067;44.654;20.200;2023-10-31T07:26:49;7.60;;;3.88;;
59294;SDS011;45067;44.654;20.200;2023-10-31T07:32:18;11.70;;;3.40;;
59294;SDS011;45067;44.654;20.200;2023-10-31T07:34:44;12.07;;;3.97;;
59294;SDS011;45067;44.654;20.200;2023-10-31T07:37:10;11.32;;;4.35;;
59294;SDS011;45067;44.654;20.200;2023-10-31T07:39:36;10.02;;;3.72;;
59294;SDS011;45067;44.654;20.200;2023-10-31T07:42:03;6.63;;;3.05;;
59294;SDS011;45067;44.654;20.200;2023-10-31T07:47:32;7.57;;;3.38;;
59294;SDS011;45067;44.654;20.200;2023-10-31T07:49:59;6.07;;;2.90;;
59294;SDS011;45067;44.654;20.200;2023-10-31T07:52:27;8.35;;;3.35;;
59294;SDS011;45067;44.654;20.200;2023-10-31T07:54:53;8.10;;;3.35;;
59294;SDS011;45067;44.654;20.200;2023-10-31T07:57:19;10.73;;;4.10;;
59294;SDS011;45067;44.654;20.200;2023-10-31T07:59:45;8.23;;;3.00;;
59294;SDS011;45067;44.654;20.200;2023-10-31T08:02:12;8.30;;;3.47;;
59294;SDS011;45067;44.654;20.200;2023-10-31T08:04:38;12.23;;;3.50;;
59294;SDS011;45067;44.654;20.200;2023-10-31T08:07:04;7.95;;;3.55;;
59294;SDS011;45067;44.654;20.200;2023-10-31T08:09:30;7.60;;;3.20;;
59294;SDS011;45067;44.654;20.200;2023-10-31T08:11:57;7.78;;;2.83;;
59294;SDS011;45067;44.654;20.200;2023-10-31T08:17:26;9.07;;;3.60;;
59294;SDS011;45067;44.654;20.200;2023-10-31T08:19:52;7.78;;;3.10;;
59294;SDS011;45067;44.654;20.200;2023-10-31T08:22:18;12.65;;;4.03;;
59294;SDS011;45067;44.654;20.200;2023-10-31T08:24:44;9.80;;;3.30;;
59294;SDS011;45067;44.654;20.200;2023-10-31T08:27:10;6.82;;;3.47;;
59294;SDS011;45067;44.654;20.200;2023-10-31T08:32:41;8.50;;;3.50;;
59294;SDS011;45067;44.654;20.200;2023-10-31T08:35:07;9.40;;;3.92;;
59294;SDS011;45067;44.654;20.200;2023-10-31T08:37:33;6.40;;;3.33;;
59294;SDS011;45067;44.654;20.200;2023-10-31T08:39:59;8.90;;;3.65;;
59294;SDS011;45067;44.654;20.200;2023-10-31T08:42:28;7.40;;;3.70;;
59294;SDS011;45067;44.654;20.200;2023-10-31T08:44:54;8.70;;;3.53;;
59294;SDS011;45067;44.654;20.200;2023-10-31T08:47:20;9.80;;;3.67;;
59294;SDS011;45067;44.654;20.200;2023-10-31T08:49:46;7.13;;;3.40;;
59294;SDS011;45067;44.654;20.200;2023-10-31T08:52:12;9.48;;;4.13;;
59294;SDS011;45067;44.654;20.200;2023-10-31T08:54:38;11.02;;;4.15;;
59294;SDS011;45067;44.654;20.200;2023-10-31T08:57:04;8.07;;;4.88;;
59294;SDS011;45067;44.654;20.200;2023-10-31T09:02:34;10.70;;;4.80;;
59294;SDS011;45067;44.654;20.200;2023-10-31T09:05:00;8.93;;;3.63;;
59294;SDS011;45067;44.654;20.200;2023-10-31T09:07:26;9.73;;;4.22;;
59294;SDS011;45067;44.654;20.200;2023-10-31T09:09:52;7.65;;;3.83;;
59294;SDS011;45067;44.654;20.200;2023-10-31T09:12:19;8.27;;;4.18;;
59294;SDS011;45067;44.654;20.200;2023-10-31T09:17:48;8.00;;;3.63;;
59294;SDS011;45067;44.654;20.200;2023-10-31T09:20:15;7.63;;;3.38;;
59294;SDS011;45067;44.654;20.200;2023-10-31T09:22:41;7.05;;;3.45;;
59294;SDS011;45067;44.654;20.200;2023-10-31T09:25:07;9.85;;;4.10;;
59294;SDS011;45067;44.654;20.200;2023-10-31T09:27:33;9.15;;;4.10;;
59294;SDS011;45067;44.654;20.200;2023-10-31T09:33:03;7.20;;;3.85;;
59294;SDS011;45067;44.654;20.200;2023-10-31T09:35:29;7.68;;;3.40;;
59294;SDS011;45067;44.654;20.200;2023-10-31T09:37:55;9.45;;;3.78;;
59294;SDS011;45067;44.654;20.200;2023-10-31T09:40:21;8.88;;;3.60;;
59294;SDS011;45067;44.654;20.200;2023-10-31T09:42:48;10.50;;;4.13;;
59294;SDS011;45067;44.654;20.200;2023-10-31T09:45:17;10.23;;;3.50;;
59294;SDS011;45067;44.654;20.200;2023-10-31T09:47:43;9.02;;;3.42;;
59294;SDS011;45067;44.654;20.200;2023-10-31T09:50:09;7.38;;;4.00;;
59294;SDS011;45067;44.654;20.200;2023-10-31T09:52:36;8.93;;;3.83;;
59294;SDS011;45067;44.654;20.200;2023-10-31T09:55:02;8.85;;;3.60;;
59294;SDS011;45067;44.654;20.200;2023-10-31T09:57:29;9.45;;;4.03;;
59294;SDS011;45067;44.654;20.200;2023-10-31T10:02:59;10.98;;;4.07;;
59294;SDS011;45067;44.654;20.200;2023-10-31T10:05:25;10.30;;;4.03;;
59294;SDS011;45067;44.654;20.200;2023-10-31T10:07:51;8.82;;;3.78;;
59294;SDS011;45067;44.654;20.200;2023-10-31T10:10:20;9.48;;;4.10;;
59294;SDS011;45067;44.654;20.200;2023-10-31T10:12:46;8.38;;;3.95;;
59294;SDS011;45067;44.654;20.200;2023-10-31T10:18:29;7.95;;;3.70;;
59294;SDS011;45067;44.654;20.200;2023-10-31T10:20:56;7.75;;;3.85;;
59294;SDS011;45067;44.654;20.200;2023-10-31T10:23:23;7.55;;;3.97;;
59294;SDS011;45067;44.654;20.200;2023-10-31T10:25:49;8.65;;;3.97;;
59294;SDS011;45067;44.654;20.200;2023-10-31T10:28:15;7.05;;;4.00;;
59294;SDS011;45067;44.654;20.200;2023-10-31T10:30:44;10.93;;;4.18;;
59294;SDS011;45067;44.654;20.200;2023-10-31T10:33:11;10.93;;;3.67;;
59294;SDS011;45067;44.654;20.200;2023-10-31T10:35:37;8.32;;;3.83;;
59294;SDS011;45067;44.654;20.200;2023-10-31T10:38:03;7.72;;;3.90;;
59294;SDS011;45067;44.654;20.200;2023-10-31T10:40:31;11.07;;;4.50;;
59294;SDS011;45067;44.654;20.200;2023-10-31T10:42:59;8.45;;;3.80;;
59294;SDS011;45067;44.654;20.200;2023-10-31T10:45:26;13.52;;;5.30;;
59294;SDS011;45067;44.654;20.200;2023-10-31T10:47:53;9.55;;;4.00;;
59294;SDS011;45067;44.654;20.200;2023-10-31T10:50:21;8.73;;;4.07;;
59294;SDS011;45067;44.654;20.200;2023-10-31T10:53:16;10.05;;;3.97;;
59294;SDS011;45067;44.654;20.200;2023-10-31T10:55:43;7.25;;;3.03;;
59294;SDS011;45067;44.654;20.200;2023-10-31T10:58:17;8.38;;;3.80;;
59294;SDS011;45067;44.654;20.200;2023-10-31T11:00:46;6.20;;;3.25;;
59294;SDS011;45067;44.654;20.200;2023-10-31T11:03:12;8.82;;;3.63;;
59294;SDS011;45067;44.654;20.200;2023-10-31T11:05:39;6.45;;;3.60;;
59294;SDS011;45067;44.654;20.200;2023-10-31T11:08:07;8.68;;;3.97;;
59294;SDS011;45067;44.654;20.200;2023-10-31T11:10:34;6.18;;;3.63;;
59294;SDS011;45067;44.654;20.200;2023-10-31T11:13:01;8.00;;;3.40;;
59294;SDS011;45067;44.654;20.200;2023-10-31T11:18:44;9.73;;;4.20;;
59294;SDS011;45067;44.654;20.200;2023-10-31T11:21:11;7.45;;;3.80;;
59294;SDS011;45067;44.654;20.200;2023-10-31T11:23:37;11.23;;;3.92;;
59294;SDS011;45067;44.654;20.200;2023-10-31T11:26:06;9.43;;;3.88;;
59294;SDS011;45067;44.654;20.200;2023-10-31T11:28:33;9.82;;;4.18;;
59294;SDS011;45067;44.654;20.200;2023-10-31T11:30:59;11.02;;;4.50;;
59294;SDS011;45067;44.654;20.200;2023-10-31T11:33:27;9.18;;;4.60;;
59294;SDS011;45067;44.654;20.200;2023-10-31T11:36:00;11.35;;;4.22;;
59294;SDS011;45067;44.654;20.200;2023-10-31T11:38:35;10.57;;;4.38;;
59294;SDS011;45067;44.654;20.200;2023-10-31T11:41:02;10.80;;;4.75;;
59294;SDS011;45067;44.654;20.200;2023-10-31T11:44:13;12.57;;;5.20;;
59294;SDS011;45067;44.654;20.200;2023-10-31T11:46:18;8.68;;;4.82;;
59294;SDS011;45067;44.654;20.200;2023-10-31T11:48:49;11.23;;;4.10;;
59294;SDS011;45067;44.654;20.200;2023-10-31T11:51:20;11.65;;;4.93;;
59294;SDS011;45067;44.654;20.200;2023-10-31T11:53:47;7.97;;;4.70;;
59294;SDS011;45067;44.654;20.200;2023-10-31T11:56:14;12.50;;;4.93;;
59294;SDS011;45067;44.654;20.200;2023-10-31T11:58:41;12.30;;;5.05;;
59294;SDS011;45067;44.654;20.200;2023-10-31T12:01:10;12.77;;;4.18;;
59294;SDS011;45067;44.654;20.200;2023-10-31T12:03:39;10.65;;;4.15;;
59294;SDS011;45067;44.654;20.200;2023-10-31T12:06:05;14.80;;;4.43;;
59294;SDS011;45067;44.654;20.200;2023-10-31T12:08:32;10.80;;;5.07;;
59294;SDS011;45067;44.654;20.200;2023-10-31T12:11:02;10.65;;;4.75;;
59294;SDS011;45067;44.654;20.200;2023-10-31T12:15:55;18.92;;;5.97;;
59294;SDS011;45067;44.654;20.200;2023-10-31T12:18:21;13.90;;;5.28;;
59294;SDS011;45067;44.654;20.200;2023-10-31T12:20:48;9.70;;;4.75;;
59294;SDS011;45067;44.654;20.200;2023-10-31T12:23:14;14.27;;;4.93;;
59294;SDS011;45067;44.654;20.200;2023-10-31T12:25:49;10.60;;;4.95;;
59294;SDS011;45067;44.654;20.200;2023-10-31T12:33:48;11.82;;;5.47;;
59294;SDS011;45067;44.654;20.200;2023-10-31T12:36:16;8.40;;;4.05;;
59294;SDS011;45067;44.654;20.200;2023-10-31T12:38:42;9.40;;;4.07;;
59294;SDS011;45067;44.654;20.200;2023-10-31T12:41:09;10.07;;;4.93;;
59294;SDS011;45067;44.654;20.200;2023-10-31T12:43:35;13.50;;;4.50;;
59294;SDS011;45067;44.654;20.200;2023-10-31T12:46:23;11.07;;;4.10;;
59294;SDS011;45067;44.654;20.200;2023-10-31T12:51:17;13.85;;;4.60;;
59294;SDS011;45067;44.654;20.200;2023-10-31T12:53:48;10.02;;;4.20;;
59294;SDS011;45067;44.654;20.200;2023-10-31T12:56:35;11.48;;;4.15;;
59294;SDS011;45067;44.654;20.200;2023-10-31T12:59:02;9.15;;;3.90;;
59294;SDS011;45067;44.654;20.200;2023-10-31T13:01:28;9.98;;;3.83;;
59294;SDS011;45067;44.654;20.200;2023-10-31T13:03:54;7.57;;;3.80;;
59294;SDS011;45067;44.654;20.200;2023-10-31T13:06:20;8.70;;;4.20;;
59294;SDS011;45067;44.654;20.200;2023-10-31T13:08:49;6.38;;;3.35;;
59294;SDS011;45067;44.654;20.200;2023-10-31T13:11:15;8.88;;;3.63;;
59294;SDS011;45067;44.654;20.200;2023-10-31T13:13:41;7.32;;;4.10;;
59294;SDS011;45067;44.654;20.200;2023-10-31T13:16:07;8.73;;;4.03;;
59294;SDS011;45067;44.654;20.200;2023-10-31T13:18:35;10.30;;;3.97;;
59294;SDS011;45067;44.654;20.200;2023-10-31T13:21:01;9.13;;;4.07;;
59294;SDS011;45067;44.654;20.200;2023-10-31T13:23:27;8.20;;;4.43;;
59294;SDS011;45067;44.654;20.200;2023-10-31T13:25:53;9.48;;;3.65;;
59294;SDS011;45067;44.654;20.200;2023-10-31T13:28:19;10.30;;;3.90;;
59294;SDS011;45067;44.654;20.200;2023-10-31T13:33:49;9.38;;;4.10;;
59294;SDS011;45067;44.654;20.200;2023-10-31T13:36:15;12.93;;;4.57;;
59294;SDS011;45067;44.654;20.200;2023-10-31T13:38:41;13.20;;;4.28;;
59294;SDS011;45067;44.654;20.200;2023-10-31T13:41:09;10.05;;;4.10;;
59294;SDS011;45067;44.654;20.200;2023-10-31T13:43:35;8.43;;;4.38;;
59294;SDS011;45067;44.654;20.200;2023-10-31T13:49:05;10.77;;;5.05;;
59294;SDS011;45067;44.654;20.200;2023-10-31T13:51:32;11.90;;;4.70;;
59294;SDS011;45067;44.654;20.200;2023-10-31T13:53:58;10.32;;;4.30;;
59294;SDS011;45067;44.654;20.200;2023-10-31T13:56:25;10.02;;;4.30;;
59294;SDS011;45067;44.654;20.200;2023-10-31T13:58:51;11.80;;;4.32;;
59294;SDS011;45067;44.654;20.200;2023-10-31T14:04:21;13.73;;;6.30;;
59294;SDS011;45067;44.654;20.200;2023-10-31T14:06:47;11.82;;;6.07;;
59294;SDS011;45067;44.654;20.200;2023-10-31T14:09:14;16.13;;;6.28;;
59294;SDS011;45067;44.654;20.200;2023-10-31T14:11:41;17.42;;;5.93;;
59294;SDS011;45067;44.654;20.200;2023-10-31T14:14:07;14.50;;;4.95;;
59294;SDS011;45067;44.654;20.200;2023-10-31T14:16:41;12.75;;;4.63;;
59294;SDS011;45067;44.654;20.200;2023-10-31T14:19:11;11.63;;;5.55;;
59294;SDS011;45067;44.654;20.200;2023-10-31T14:21:38;12.73;;;5.28;;
59294;SDS011;45067;44.654;20.200;2023-10-31T14:24:04;14.38;;;5.85;;
59294;SDS011;45067;44.654;20.200;2023-10-31T14:26:31;12.23;;;5.18;;
59294;SDS011;45067;44.654;20.200;2023-10-31T14:28:58;12.32;;;5.43;;
59294;SDS011;45067;44.654;20.200;2023-10-31T14:34:28;12.77;;;4.93;;
59294;SDS011;45067;44.654;20.200;2023-10-31T14:36:54;12.55;;;5.20;;
59294;SDS011;45067;44.654;20.200;2023-10-31T14:39:20;10.63;;;5.10;;
59294;SDS011;45067;44.654;20.200;2023-10-31T14:41:46;17.05;;;5.30;;
59294;SDS011;45067;44.654;20.200;2023-10-31T14:44:12;14.30;;;5.28;;
59294;SDS011;45067;44.654;20.200;2023-10-31T14:46:39;15.70;;;5.43;;
59294;SDS011;45067;44.654;20.200;2023-10-31T14:49:05;15.07;;;5.65;;
59294;SDS011;45067;44.654;20.200;2023-10-31T14:51:32;10.15;;;4.15;;
59294;SDS011;45067;44.654;20.200;2023-10-31T14:53:58;16.83;;;4.75;;
59294;SDS011;45067;44.654;20.200;2023-10-31T14:56:24;11.45;;;4.82;;
59294;SDS011;45067;44.654;20.200;2023-10-31T14:58:52;12.55;;;4.00;;
59294;SDS011;45067;44.654;20.200;2023-10-31T15:04:36;11.15;;;4.10;;
59294;SDS011;45067;44.654;20.200;2023-10-31T15:07:05;12.30;;;3.55;;
59294;SDS011;45067;44.654;20.200;2023-10-31T15:09:33;10.73;;;4.53;;
59294;SDS011;45067;44.654;20.200;2023-10-31T15:11:59;11.10;;;4.68;;
59294;SDS011;45067;44.654;20.200;2023-10-31T15:14:25;14.27;;;4.20;;
59294;SDS011;45067;44.654;20.200;2023-10-31T15:16:54;13.13;;;4.63;;
59294;SDS011;45067;44.654;20.200;2023-10-31T15:19:21;13.00;;;4.45;;
59294;SDS011;45067;44.654;20.200;2023-10-31T15:21:48;8.95;;;4.43;;
59294;SDS011;45067;44.654;20.200;2023-10-31T15:24:14;11.70;;;4.43;;
59294;SDS011;45067;44.654;20.200;2023-10-31T15:26:43;12.40;;;4.50;;
59294;SDS011;45067;44.654;20.200;2023-10-31T15:29:11;13.90;;;4.57;;
59294;SDS011;45067;44.654;20.200;2023-10-31T15:34:44;23.17;;;6.13;;
59294;SDS011;45067;44.654;20.200;2023-10-31T15:37:12;25.33;;;6.57;;
59294;SDS011;45067;44.654;20.200;2023-10-31T15:39:42;22.02;;;6.32;;
59294;SDS011;45067;44.654;20.200;2023-10-31T15:42:20;19.25;;;5.63;;
59294;SDS011;45067;44.654;20.200;2023-10-31T15:44:46;16.15;;;5.35;;
59294;SDS011;45067;44.654;20.200;2023-10-31T15:47:15;13.32;;;5.15;;
59294;SDS011;45067;44.654;20.200;2023-10-31T15:49:47;18.27;;;7.45;;
59294;SDS011;45067;44.654;20.200;2023-10-31T15:52:16;13.98;;;6.40;;
59294;SDS011;45067;44.654;20.200;2023-10-31T15:54:47;21.10;;;6.90;;
59294;SDS011;45067;44.654;20.200;2023-10-31T15:57:21;19.95;;;7.38;;
59294;SDS011;45067;44.654;20.200;2023-10-31T15:59:47;19.48;;;6.95;;
59294;SDS011;45067;44.654;20.200;2023-10-31T16:02:13;15.80;;;6.05;;
59294;SDS011;45067;44.654;20.200;2023-10-31T16:08:04;12.73;;;5.18;;
59294;SDS011;45067;44.654;20.200;2023-10-31T16:10:30;13.32;;;6.10;;
59294;SDS011;45067;44.654;20.200;2023-10-31T16:12:56;13.00;;;7.07;;
59294;SDS011;45067;44.654;20.200;2023-10-31T16:15:22;10.23;;;5.65;;
59294;SDS011;45067;44.654;20.200;2023-10-31T16:17:48;15.10;;;8.32;;
59294;SDS011;45067;44.654;20.200;2023-10-31T16:20:17;16.52;;;8.38;;
59294;SDS011;45067;44.654;20.200;2023-10-31T16:22:43;18.58;;;7.60;;
59294;SDS011;45067;44.654;20.200;2023-10-31T16:25:09;12.40;;;6.38;;
59294;SDS011;45067;44.654;20.200;2023-10-31T16:27:35;11.15;;;5.95;;
59294;SDS011;45067;44.654;20.200;2023-10-31T16:30:01;11.48;;;4.30;;
59294;SDS011;45067;44.654;20.200;2023-10-31T16:32:27;11.40;;;5.18;;
59294;SDS011;45067;44.654;20.200;2023-10-31T16:34:53;12.90;;;4.05;;